Pagina principale
METAR-TAF:

METAR-TAF

Aeroporti :

Aeroporto di Pantelleria

Pantelleria, Italia

latitudine: 36-49N, longitudine: 011-58E, altezza: 191 m

Osservazione

Il bollettino è stato emesso 2 ore e 40 minuti fa, alle 17:50 UTC
Vento 9 kt da sud/sud-est
Temperature 24°C
Umidità 74%
Pressione 1018 hPa
Visibilità 10 km o più
nessuna nube inferiore a 1500 m e nessun cumulonembo

METAR: LICG 161750Z 16009KT CAVOK 24/19 Q1018

Ora: 22:30 (20:30 UTC)

Previsione

Il bollettino è stato emesso 6 ore e 30 minuti fa, alle 14:00 UTC
Previsione valida dal 16 alle 15 UTC al 16 alle 24 UTC
Vento 14 kt da sud/sud-est
Visibilità 10 km o più
nessuna nube inferiore a 1500 m e nessun cumulonembo

TAF: LICG 161400Z 1615/1624 16014KT CAVOK

Osservazioni e previsioni meteorologiche di più di 4000 aeroporti (messaggi METAR e TAF).

Le stazioni disponibili sono rappresentate dai dischi gialli e rossi sulla carta.

Puntare il mouse per vedere il nome della stazione.

Clicca sopra per visualizzare le osservazioni e previsioni meteorologiche.

Per cambiare la mappa : fare clic sui pulsanti verdi con una croce nera per ingrandire, il pulsante verde con un trattino per diminuire, o sulla freccia verde per le mappe adiacenti.


METAR-TAF: